createdAt,value
2019-01-26T00:02:14.136Z,4.30
2019-01-26T00:05:05.014Z,4.30
2019-01-26T00:07:55.258Z,4.30
2019-01-26T00:10:45.674Z,4.40
2019-01-26T00:13:35.945Z,4.40
2019-01-26T00:16:26.507Z,4.40
2019-01-26T00:19:17.261Z,4.40
2019-01-26T00:22:07.257Z,4.50
2019-01-26T00:24:57.430Z,4.50
2019-01-26T00:27:48.029Z,4.60
2019-01-26T00:30:38.138Z,4.60
2019-01-26T00:33:28.129Z,4.60
2019-01-26T00:36:18.509Z,4.60
2019-01-26T00:39:09.750Z,4.60
2019-01-26T00:42:00.871Z,4.70
2019-01-26T00:44:51.090Z,4.70
2019-01-26T00:47:41.926Z,4.70
2019-01-26T00:50:32.026Z,4.70
2019-01-26T00:53:22.305Z,4.70
2019-01-26T00:56:12.806Z,4.70
2019-01-26T00:59:03.107Z,4.70
2019-01-26T01:01:53.446Z,4.70
2019-01-26T01:04:43.406Z,4.70
2019-01-26T01:07:33.446Z,4.60
2019-01-26T01:10:23.590Z,4.60
2019-01-26T01:13:13.743Z,4.60
2019-01-26T01:16:03.826Z,4.50
2019-01-26T01:18:53.837Z,4.50
2019-01-26T01:21:44.050Z,4.50
2019-01-26T01:24:34.354Z,4.50
2019-01-26T01:27:24.699Z,4.50
2019-01-26T01:30:18.017Z,4.40
2019-01-26T01:33:08.370Z,4.40
2019-01-26T01:35:58.357Z,4.40
2019-01-26T01:38:48.566Z,4.40
2019-01-26T01:41:38.845Z,4.30
2019-01-26T01:44:29.266Z,4.30
2019-01-26T01:47:19.594Z,4.30
2019-01-26T01:50:10.958Z,4.30
2019-01-26T01:53:01.082Z,4.40
2019-01-26T01:55:51.470Z,4.30
2019-01-26T01:58:41.392Z,4.40
2019-01-26T02:01:31.557Z,4.40
2019-01-26T02:04:22.118Z,4.40
2019-01-26T02:07:12.164Z,4.40
2019-01-26T02:10:02.233Z,4.40
2019-01-26T02:12:52.759Z,4.50
2019-01-26T02:15:43.626Z,4.50
2019-01-26T02:18:33.914Z,4.50
2019-01-26T02:21:23.941Z,4.50
2019-01-26T02:24:14.119Z,4.50
2019-01-26T02:27:04.177Z,4.60
2019-01-26T02:29:54.617Z,4.60
2019-01-26T02:32:44.914Z,4.60
2019-01-26T02:35:35.302Z,4.70
2019-01-26T02:38:25.484Z,4.70
2019-01-26T02:41:16.133Z,4.70
2019-01-26T02:44:06.355Z,4.70
2019-01-26T02:46:58.100Z,4.70
2019-01-26T02:49:48.309Z,4.70
2019-01-26T02:52:38.386Z,4.70
2019-01-26T02:55:28.713Z,4.80
2019-01-26T02:58:19.005Z,4.80
2019-01-26T03:01:09.818Z,4.70
2019-01-26T03:03:59.907Z,4.70
2019-01-26T03:06:49.982Z,4.70
2019-01-26T03:09:40.097Z,4.70
2019-01-26T03:12:30.558Z,4.70
2019-01-26T03:15:22.024Z,4.70
2019-01-26T03:18:12.567Z,4.70
2019-01-26T03:21:02.890Z,4.70
2019-01-26T03:23:53.187Z,4.70
2019-01-26T03:26:43.420Z,4.70
2019-01-26T03:29:33.670Z,4.80
2019-01-26T03:32:23.885Z,4.80
2019-01-26T03:35:13.813Z,4.80
2019-01-26T03:38:04.142Z,4.80
2019-01-26T03:40:54.799Z,4.90
2019-01-26T03:43:45.267Z,4.80
2019-01-26T03:46:35.874Z,4.80
2019-01-26T03:49:26.095Z,4.90
2019-01-26T03:52:16.159Z,4.80
2019-01-26T03:55:07.765Z,4.90
2019-01-26T03:57:58.154Z,4.90
2019-01-26T04:00:48.475Z,4.90
2019-01-26T04:03:38.594Z,4.90
2019-01-26T04:06:29.272Z,4.90
2019-01-26T04:09:19.270Z,4.90
2019-01-26T04:12:09.818Z,4.80
2019-01-26T04:15:00.014Z,4.80
2019-01-26T04:17:50.465Z,4.80
2019-01-26T04:20:40.332Z,4.80
2019-01-26T04:23:30.902Z,4.80
2019-01-26T04:26:20.853Z,4.80
2019-01-26T04:29:11.530Z,4.80
2019-01-26T04:32:01.527Z,4.90
2019-01-26T04:34:51.857Z,4.90
2019-01-26T04:37:42.343Z,4.90
2019-01-26T04:40:32.872Z,4.90
2019-01-26T04:43:23.362Z,4.90
2019-01-26T04:46:13.862Z,4.90
2019-01-26T04:49:04.151Z,4.80
2019-01-26T04:51:54.102Z,4.80
2019-01-26T04:54:44.017Z,4.80
2019-01-26T04:57:34.674Z,4.80
2019-01-26T05:00:26.714Z,4.70
2019-01-26T05:03:16.745Z,4.70
2019-01-26T05:06:06.997Z,4.70
2019-01-26T05:08:57.228Z,4.70
2019-01-26T05:11:47.997Z,4.70
2019-01-26T05:14:38.724Z,4.70
2019-01-26T05:17:28.746Z,4.70
2019-01-26T05:20:24.504Z,4.80
2019-01-26T05:23:14.856Z,4.90
2019-01-26T05:26:06.277Z,5.10
2019-01-26T05:28:56.599Z,5.20
2019-01-26T05:31:47.471Z,5.30
2019-01-26T05:34:37.436Z,5.30
2019-01-26T05:37:28.261Z,5.40
2019-01-26T05:40:18.885Z,5.50
2019-01-26T05:43:09.130Z,5.50
2019-01-26T05:45:59.513Z,5.50
2019-01-26T05:48:49.741Z,5.60
2019-01-26T05:51:39.971Z,5.70
2019-01-26T05:54:30.347Z,5.80
2019-01-26T05:57:20.619Z,5.90
2019-01-26T06:00:15.071Z,5.90
2019-01-26T06:03:05.315Z,6.00
2019-01-26T06:05:55.418Z,6.00
2019-01-26T06:08:45.513Z,6.00
2019-01-26T06:11:35.738Z,6.00
2019-01-26T06:14:26.102Z,6.10
2019-01-26T06:17:16.530Z,6.10
2019-01-26T06:20:08.025Z,6.00
2019-01-26T06:22:57.990Z,6.00
2019-01-26T06:25:48.442Z,5.90
2019-01-26T06:28:38.534Z,5.80
2019-01-26T06:31:28.894Z,5.70
2019-01-26T06:34:19.274Z,5.60
2019-01-26T06:37:09.479Z,5.50
2019-01-26T06:39:59.493Z,5.40
2019-01-26T06:42:49.962Z,5.30
2019-01-26T06:45:41.047Z,5.20
2019-01-26T06:48:31.423Z,5.00
2019-01-26T06:51:21.766Z,5.00
2019-01-26T06:54:11.688Z,4.90
2019-01-26T06:57:01.979Z,4.80
2019-01-26T06:59:52.185Z,4.80
2019-01-26T07:02:42.614Z,4.80
2019-01-26T07:05:56.221Z,4.90
2019-01-26T07:08:46.186Z,4.90
2019-01-26T07:11:36.710Z,5.00
2019-01-26T07:14:27.634Z,5.00
2019-01-26T07:17:18.725Z,5.00
2019-01-26T07:20:10.058Z,5.00
2019-01-26T07:23:01.319Z,4.90
2019-01-26T07:25:51.987Z,4.90
2019-01-26T07:28:42.934Z,5.00
2019-01-26T07:31:33.152Z,5.10
2019-01-26T07:34:24.162Z,5.20
2019-01-26T07:37:14.377Z,5.40
2019-01-26T07:40:04.946Z,5.50
2019-01-26T07:42:55.053Z,5.50
2019-01-26T07:45:45.297Z,5.60
2019-01-26T07:48:35.397Z,5.70
2019-01-26T07:51:25.468Z,5.70
2019-01-26T07:54:15.665Z,5.80
2019-01-26T07:57:05.805Z,5.90
2019-01-26T07:59:56.616Z,5.90
2019-01-26T08:02:46.690Z,6.00
2019-01-26T08:05:37.234Z,6.00
2019-01-26T08:08:27.277Z,6.00
2019-01-26T08:11:17.325Z,6.00
2019-01-26T08:14:09.135Z,6.10
2019-01-26T08:16:59.076Z,6.10
2019-01-26T08:19:49.246Z,6.10
2019-01-26T08:22:39.669Z,6.20
2019-01-26T08:25:29.881Z,6.20
2019-01-26T08:28:19.870Z,6.30
2019-01-26T08:31:11.773Z,6.40
2019-01-26T08:34:02.170Z,6.40
2019-01-26T08:36:52.873Z,6.40
2019-01-26T08:39:42.973Z,6.50
2019-01-26T08:42:33.009Z,6.50
2019-01-26T08:45:23.421Z,6.60
2019-01-26T08:48:13.711Z,6.60
2019-01-26T08:51:03.929Z,6.70
2019-01-26T08:53:54.353Z,6.70
2019-01-26T08:56:44.584Z,6.70
2019-01-26T08:59:34.623Z,6.70
2019-01-26T09:02:43.653Z,6.70
2019-01-26T09:05:38.709Z,6.70
2019-01-26T09:08:29.058Z,6.70
2019-01-26T09:11:20.791Z,6.70
2019-01-26T09:14:11.212Z,6.70
2019-01-26T09:17:01.113Z,6.70
2019-01-26T09:19:51.825Z,6.70
2019-01-26T09:22:42.025Z,6.70
2019-01-26T09:25:32.289Z,6.80
2019-01-26T09:28:22.294Z,6.90
2019-01-26T09:31:12.629Z,7.10
2019-01-26T09:34:02.914Z,7.20
2019-01-26T09:36:53.294Z,7.20
2019-01-26T09:39:43.934Z,7.20
2019-01-26T09:42:34.338Z,7.20
2019-01-26T09:45:24.633Z,7.20
2019-01-26T09:48:14.802Z,7.20
2019-01-26T09:51:05.465Z,7.20
2019-01-26T09:53:55.438Z,7.20
2019-01-26T09:56:45.642Z,7.10
2019-01-26T09:59:36.190Z,7.10
2019-01-26T10:02:26.466Z,7.10
2019-01-26T10:05:16.739Z,7.20
2019-01-26T10:08:07.091Z,7.30
2019-01-26T10:10:57.197Z,7.30
2019-01-26T10:13:47.690Z,7.30
2019-01-26T10:16:37.704Z,7.30
2019-01-26T10:19:27.906Z,7.40
2019-01-26T10:22:18.149Z,7.50
2019-01-26T10:25:09.901Z,7.50
2019-01-26T10:28:00.137Z,7.60
2019-01-26T10:30:53.981Z,7.70
2019-01-26T10:33:44.658Z,7.70
2019-01-26T10:36:57.706Z,7.90
2019-01-26T10:39:47.726Z,8.10
2019-01-26T10:42:37.677Z,8.30
2019-01-26T10:45:29.080Z,8.50
2019-01-26T10:48:19.303Z,8.50
2019-01-26T10:51:09.366Z,8.50
2019-01-26T10:53:59.692Z,8.50
2019-01-26T10:56:49.819Z,8.40
2019-01-26T10:59:40.137Z,8.40
2019-01-26T11:02:30.535Z,8.30
2019-01-26T11:05:21.006Z,8.30
2019-01-26T11:08:11.345Z,8.30
2019-01-26T11:11:01.346Z,8.30
2019-01-26T11:13:51.618Z,8.30
2019-01-26T11:16:41.790Z,8.30
2019-01-26T11:19:32.141Z,8.40
2019-01-26T11:22:22.385Z,8.50
2019-01-26T11:25:12.636Z,8.60
2019-01-26T11:28:02.917Z,8.50
2019-01-26T11:30:53.386Z,8.50
2019-01-26T11:33:44.991Z,8.50
2019-01-26T11:36:35.194Z,8.70
2019-01-26T11:39:25.512Z,8.80
2019-01-26T11:42:15.853Z,8.90
2019-01-26T11:45:29.773Z,9.10
2019-01-26T11:48:23.046Z,9.20
2019-01-26T11:51:32.269Z,9.10
2019-01-26T11:54:22.274Z,9.00
2019-01-26T11:57:20.683Z,8.90
2019-01-26T12:00:36.310Z,8.80
2019-01-26T12:03:51.437Z,8.80
2019-01-26T12:06:47.134Z,8.70
2019-01-26T12:09:37.234Z,8.70
2019-01-26T12:12:27.381Z,8.70
2019-01-26T12:15:17.413Z,8.70
2019-01-26T12:18:07.464Z,8.80
2019-01-26T12:20:57.451Z,8.90
2019-01-26T12:23:48.072Z,8.90
2019-01-26T12:26:38.589Z,8.90
2019-01-26T12:29:28.983Z,8.90
2019-01-26T12:32:19.298Z,9.00
2019-01-26T12:35:11.337Z,9.00
2019-01-26T12:38:01.394Z,9.00
2019-01-26T12:40:51.978Z,9.00
2019-01-26T12:43:42.317Z,9.00
2019-01-26T12:46:32.269Z,9.20
2019-01-26T12:49:29.313Z,9.40
2019-01-26T12:52:14.562Z,9.60
2019-01-26T12:55:04.918Z,9.70
2019-01-26T12:57:55.862Z,9.60
2019-01-26T13:00:46.013Z,9.40
2019-01-26T13:03:36.341Z,9.70
2019-01-26T13:06:26.491Z,10.10
2019-01-26T13:09:16.413Z,10.50
2019-01-26T13:12:06.377Z,10.90
2019-01-26T13:14:57.606Z,11.70
2019-01-26T13:17:48.062Z,12.40
2019-01-26T13:20:38.426Z,12.70
2019-01-26T13:23:28.629Z,12.50
2019-01-26T13:26:18.859Z,12.40
2019-01-26T13:29:09.180Z,12.00
2019-01-26T13:31:59.816Z,11.80
2019-01-26T13:34:49.878Z,11.70
2019-01-26T13:37:40.117Z,11.90
2019-01-26T13:40:30.172Z,12.00
2019-01-26T13:43:20.290Z,12.20
2019-01-26T13:46:11.609Z,11.90
2019-01-26T13:49:01.531Z,11.40
2019-01-26T13:51:52.089Z,11.20
2019-01-26T13:54:42.146Z,10.90
2019-01-26T13:57:34.010Z,10.60
2019-01-26T14:00:27.159Z,10.40
2019-01-26T14:03:17.193Z,10.30
2019-01-26T14:06:07.665Z,10.20
2019-01-26T14:08:58.300Z,10.20
2019-01-26T14:11:48.707Z,10.10
2019-01-26T14:14:38.926Z,10.10
2019-01-26T14:17:29.206Z,10.20
2019-01-26T14:20:21.294Z,10.10
2019-01-26T14:23:11.255Z,10.10
2019-01-26T14:26:01.547Z,10.00
2019-01-26T14:28:51.875Z,9.80
2019-01-26T14:31:42.542Z,9.60
2019-01-26T14:34:33.494Z,9.40
2019-01-26T14:37:23.777Z,9.10
2019-01-26T14:40:14.194Z,9.00
2019-01-26T14:43:04.830Z,8.80
2019-01-26T14:45:56.269Z,8.70
2019-01-26T14:48:46.546Z,8.70
2019-01-26T14:51:36.542Z,8.70
2019-01-26T14:54:26.745Z,8.60
2019-01-26T14:57:16.657Z,8.60
2019-01-26T15:00:12.769Z,8.50
2019-01-26T15:03:03.093Z,8.50
2019-01-26T15:05:53.078Z,8.40
2019-01-26T15:08:43.326Z,8.40
2019-01-26T15:11:33.529Z,8.40
2019-01-26T15:14:24.823Z,8.40
2019-01-26T15:17:15.527Z,8.40
2019-01-26T15:20:07.257Z,8.40
2019-01-26T15:22:57.406Z,8.30
2019-01-26T15:25:47.578Z,8.30
2019-01-26T15:28:42.950Z,8.30
2019-01-26T15:31:29.234Z,8.20
2019-01-26T15:34:19.527Z,8.20
2019-01-26T15:37:09.868Z,8.20
2019-01-26T15:40:00.246Z,8.20
2019-01-26T15:42:50.333Z,8.20
2019-01-26T15:45:43.454Z,8.20
2019-01-26T15:48:33.762Z,8.20
2019-01-26T15:51:23.838Z,8.10
2019-01-26T15:54:13.938Z,8.10
2019-01-26T15:57:04.278Z,8.10
2019-01-26T15:59:54.646Z,8.10
2019-01-26T16:02:45.279Z,8.10
2019-01-26T16:05:35.279Z,8.10
2019-01-26T16:08:26.294Z,8.10
2019-01-26T16:11:16.610Z,8.00
2019-01-26T16:14:07.051Z,8.00
2019-01-26T16:16:57.061Z,8.00
2019-01-26T16:19:47.322Z,8.00
2019-01-26T16:22:38.446Z,8.00
2019-01-26T16:25:28.719Z,8.10
2019-01-26T16:28:19.304Z,8.00
2019-01-26T16:31:09.561Z,8.10
2019-01-26T16:33:59.601Z,8.10
2019-01-26T16:36:49.874Z,8.00
2019-01-26T16:39:39.779Z,8.00
2019-01-26T16:42:29.758Z,8.00
2019-01-26T16:45:22.723Z,8.00
2019-01-26T16:48:14.942Z,8.00
2019-01-26T16:51:04.984Z,8.00
2019-01-26T16:53:55.269Z,8.00
2019-01-26T16:56:45.649Z,7.90
2019-01-26T16:59:35.748Z,8.00
2019-01-26T17:02:26.128Z,7.90
2019-01-26T17:05:16.539Z,7.90
2019-01-26T17:08:07.265Z,7.90
2019-01-26T17:10:57.246Z,7.90
2019-01-26T17:13:47.526Z,7.90
2019-01-26T17:16:37.791Z,7.90
2019-01-26T17:19:27.825Z,7.90
2019-01-26T17:22:18.070Z,7.90
2019-01-26T17:25:08.222Z,7.80
2019-01-26T17:27:58.618Z,7.90
2019-01-26T17:30:48.968Z,7.80
2019-01-26T17:33:39.726Z,7.80
2019-01-26T17:36:29.933Z,7.90
2019-01-26T17:39:20.138Z,7.90
2019-01-26T17:42:10.225Z,7.90
2019-01-26T17:45:00.586Z,7.90
2019-01-26T17:47:51.066Z,7.80
2019-01-26T17:50:42.410Z,7.90
2019-01-26T17:53:32.656Z,7.80
2019-01-26T17:56:22.589Z,7.80
2019-01-26T17:59:13.045Z,7.80
2019-01-26T18:02:03.457Z,7.80
2019-01-26T18:04:53.953Z,7.80
2019-01-26T18:07:44.321Z,7.70
2019-01-26T18:10:34.718Z,7.70
2019-01-26T18:13:24.809Z,7.70
2019-01-26T18:16:15.114Z,7.70
2019-01-26T18:19:05.994Z,7.60
2019-01-26T18:21:56.228Z,7.60
2019-01-26T18:24:47.417Z,7.60
2019-01-26T18:27:37.741Z,7.60
2019-01-26T18:30:28.185Z,7.60
2019-01-26T18:33:18.622Z,7.60
2019-01-26T18:36:08.810Z,7.60
2019-01-26T18:38:59.142Z,7.60
2019-01-26T18:41:50.352Z,7.60
2019-01-26T18:44:40.398Z,7.60
2019-01-26T18:47:30.707Z,7.60
2019-01-26T18:50:26.096Z,7.60
2019-01-26T18:53:16.395Z,7.60
2019-01-26T18:56:06.466Z,7.50
2019-01-26T18:58:56.894Z,7.50
2019-01-26T19:01:47.123Z,7.50
2019-01-26T19:04:46.894Z,7.50
2019-01-26T19:07:36.986Z,7.50
2019-01-26T19:10:27.153Z,7.50
2019-01-26T19:13:17.454Z,7.50
2019-01-26T19:16:07.618Z,7.50
2019-01-26T19:18:58.041Z,7.50
2019-01-26T19:21:48.294Z,7.50
2019-01-26T19:24:38.610Z,7.50
2019-01-26T19:27:28.921Z,7.50
2019-01-26T19:30:21.818Z,7.50
2019-01-26T19:33:11.961Z,7.50
2019-01-26T19:36:02.330Z,7.50
2019-01-26T19:38:53.238Z,7.50
2019-01-26T19:41:44.026Z,7.50
2019-01-26T19:44:34.649Z,7.50
2019-01-26T19:47:25.442Z,7.50
2019-01-26T19:50:19.126Z,7.50
2019-01-26T19:53:09.398Z,7.50
2019-01-26T19:55:59.892Z,7.60
2019-01-26T19:58:50.223Z,7.60
2019-01-26T20:01:40.511Z,7.60
2019-01-26T20:04:30.602Z,7.60
2019-01-26T20:07:22.229Z,7.60
2019-01-26T20:10:14.233Z,7.50
2019-01-26T20:13:04.917Z,7.60
2019-01-26T20:15:55.166Z,7.60
2019-01-26T20:18:45.449Z,7.60
2019-01-26T20:21:35.833Z,7.60
2019-01-26T20:24:25.863Z,7.60
2019-01-26T20:27:15.898Z,7.60
2019-01-26T20:30:08.666Z,7.60
2019-01-26T20:32:58.974Z,7.60
2019-01-26T20:35:49.197Z,7.60
2019-01-26T20:38:39.514Z,7.60
2019-01-26T20:41:29.784Z,7.60
2019-01-26T20:44:20.970Z,7.60
2019-01-26T20:47:11.033Z,7.60
2019-01-26T20:50:01.359Z,7.70
2019-01-26T20:52:51.841Z,7.70
2019-01-26T20:55:42.005Z,7.70
2019-01-26T20:58:32.267Z,7.70
2019-01-26T21:01:22.486Z,7.70
2019-01-26T21:04:12.806Z,7.70
2019-01-26T21:07:03.058Z,7.70
2019-01-26T21:09:53.074Z,7.70
2019-01-26T21:12:43.562Z,7.60
2019-01-26T21:15:33.898Z,7.60
2019-01-26T21:18:24.346Z,7.60
2019-01-26T21:21:15.000Z,7.60
2019-01-26T21:24:06.329Z,7.60
2019-01-26T21:26:57.831Z,7.60
2019-01-26T21:29:47.990Z,7.50
2019-01-26T21:32:38.173Z,7.50
2019-01-26T21:35:28.542Z,7.50
2019-01-26T21:38:18.805Z,7.50
2019-01-26T21:41:09.065Z,7.50
2019-01-26T21:43:59.278Z,7.50
2019-01-26T21:46:49.548Z,7.50
2019-01-26T21:49:39.593Z,7.50
2019-01-26T21:52:30.067Z,7.50
2019-01-26T21:55:20.293Z,7.50
2019-01-26T21:58:10.409Z,7.50
2019-01-26T22:01:01.090Z,7.50
2019-01-26T22:03:51.390Z,7.50
2019-01-26T22:06:41.502Z,7.50
2019-01-26T22:09:31.818Z,7.50
2019-01-26T22:12:22.185Z,7.50
2019-01-26T22:15:14.202Z,7.50
2019-01-26T22:18:04.677Z,7.50
2019-01-26T22:20:54.790Z,7.50
2019-01-26T22:23:45.341Z,7.50
2019-01-26T22:26:36.947Z,7.50
2019-01-26T22:29:31.245Z,7.50
2019-01-26T22:32:19.437Z,7.50
2019-01-26T22:35:09.937Z,7.60
2019-01-26T22:37:59.890Z,7.60
2019-01-26T22:40:49.829Z,7.60
2019-01-26T22:43:39.787Z,7.60
2019-01-26T22:46:29.974Z,7.60
2019-01-26T22:49:20.234Z,7.60
2019-01-26T22:52:11.836Z,7.60
2019-01-26T22:55:02.642Z,7.60
2019-01-26T22:57:53.713Z,7.60
2019-01-26T23:00:57.390Z,7.60
2019-01-26T23:04:13.590Z,7.60
2019-01-26T23:07:36.670Z,7.60
2019-01-26T23:10:49.507Z,7.60
2019-01-26T23:14:19.830Z,7.60
2019-01-26T23:17:39.517Z,7.60
2019-01-26T23:20:45.855Z,7.60
2019-01-26T23:24:09.030Z,7.60
2019-01-26T23:27:55.745Z,7.60
2019-01-26T23:31:14.554Z,7.60
2019-01-26T23:34:04.537Z,7.60
2019-01-26T23:36:54.929Z,7.60
2019-01-26T23:39:45.845Z,7.60
2019-01-26T23:42:36.005Z,7.70
2019-01-26T23:45:26.198Z,7.60
2019-01-26T23:48:16.549Z,7.70
2019-01-26T23:51:06.594Z,7.70
2019-01-26T23:53:56.510Z,7.70
2019-01-26T23:56:46.697Z,7.70
2019-01-26T23:59:36.957Z,7.70
